createdAt,value
2022-09-23T00:00:22.870Z,1009.43
2022-09-23T00:05:25.139Z,1009.42
2022-09-23T00:10:29.284Z,1009.45
2022-09-23T00:15:31.559Z,1009.36
2022-09-23T00:20:35.745Z,1009.35
2022-09-23T00:25:39.873Z,1009.26
2022-09-23T00:30:44.178Z,1009.30
2022-09-23T00:35:48.245Z,1009.28
2022-09-23T00:40:52.435Z,1009.21
2022-09-23T00:45:56.627Z,1009.22
2022-09-23T00:51:00.724Z,1009.26
2022-09-23T00:56:04.863Z,1009.13
2022-09-23T01:01:09.069Z,1009.10
2022-09-23T01:06:13.170Z,1009.11
2022-09-23T01:11:17.344Z,1009.07
2022-09-23T01:16:21.553Z,1009.01
2022-09-23T01:21:25.680Z,1008.92
2022-09-23T01:26:29.855Z,1008.91
2022-09-23T01:31:33.994Z,1008.90
2022-09-23T01:36:38.142Z,1008.87
2022-09-23T01:41:42.303Z,1008.75
2022-09-23T01:46:46.454Z,1008.70
2022-09-23T01:51:50.619Z,1008.69
2022-09-23T01:56:54.792Z,1008.67
2022-09-23T02:01:57.060Z,1008.75
2022-09-23T02:07:01.244Z,1008.59
2022-09-23T02:12:05.405Z,1008.64
2022-09-23T02:17:07.640Z,1008.69
2022-09-23T02:22:11.841Z,1008.67
2022-09-23T02:27:15.970Z,1008.61
2022-09-23T02:32:20.139Z,1008.49
2022-09-23T02:37:24.332Z,1008.44
2022-09-23T02:42:28.468Z,1008.37
2022-09-23T02:47:32.661Z,1008.35
2022-09-23T02:52:36.823Z,1008.34
2022-09-23T02:57:40.953Z,1008.27
2022-09-23T03:02:45.145Z,1008.23
2022-09-23T03:07:49.424Z,1008.11
2022-09-23T03:17:57.628Z,1008.01
2022-09-23T03:23:01.794Z,1008.04
2022-09-23T03:28:05.918Z,1008.05
2022-09-23T03:33:10.133Z,1008.01
2022-09-23T03:38:14.248Z,1008.01
2022-09-23T03:43:18.403Z,1008.01
2022-09-23T03:48:22.543Z,1007.95
2022-09-23T03:53:26.735Z,1007.98
2022-09-23T03:58:30.911Z,1007.91
2022-09-23T04:03:35.046Z,1007.86
2022-09-23T04:08:37.354Z,1007.85
2022-09-23T04:13:41.493Z,1007.86
2022-09-23T04:18:43.778Z,1007.79
2022-09-23T04:23:47.917Z,1007.89
2022-09-23T04:28:52.108Z,1007.80
2022-09-23T04:33:56.284Z,1007.77
2022-09-23T04:39:00.512Z,1007.67
2022-09-23T04:44:04.584Z,1007.71
2022-09-23T04:49:08.813Z,1007.59
2022-09-23T04:54:12.931Z,1007.52
2022-09-23T04:59:17.053Z,1007.48
2022-09-23T05:04:21.229Z,1007.53
2022-09-23T05:09:25.410Z,1007.46
2022-09-23T05:14:29.564Z,1007.45
2022-09-23T05:19:33.735Z,1007.49
2022-09-23T05:24:37.912Z,1007.61
2022-09-23T05:29:42.002Z,1007.55
2022-09-23T05:34:46.221Z,1007.63
2022-09-23T05:39:50.349Z,1007.65
2022-09-23T05:44:54.522Z,1007.63
2022-09-23T05:50:00.202Z,1007.70
2022-09-23T05:55:02.873Z,1007.70
2022-09-23T06:00:06.997Z,1007.67
2022-09-23T06:05:09.271Z,1007.66
2022-09-23T06:10:13.442Z,1007.55
2022-09-23T06:15:15.710Z,1007.66
2022-09-23T06:20:19.929Z,1007.55
2022-09-23T06:25:24.254Z,1007.60
2022-09-23T06:30:28.197Z,1007.59
2022-09-23T06:35:32.365Z,1007.56
2022-09-23T06:40:36.636Z,1007.59
2022-09-23T06:45:40.711Z,1007.59
2022-09-23T06:50:44.833Z,1007.60
2022-09-23T06:55:49.028Z,1007.63
2022-09-23T07:00:53.206Z,1007.57
2022-09-23T07:05:57.359Z,1007.55
2022-09-23T07:11:01.477Z,1007.51
2022-09-23T07:16:05.732Z,1007.66
2022-09-23T07:21:09.835Z,1007.65
2022-09-23T07:26:13.991Z,1007.58
2022-09-23T07:31:26.210Z,1007.56
2022-09-23T07:36:22.316Z,1007.51
2022-09-23T07:41:26.490Z,1007.37
2022-09-23T07:46:30.703Z,1007.47
2022-09-23T07:51:35.959Z,1007.55
2022-09-23T07:56:38.966Z,1007.43
2022-09-23T08:01:41.260Z,1007.40
2022-09-23T08:06:45.380Z,1007.46
2022-09-23T08:11:47.661Z,1007.45
2022-09-23T08:16:51.794Z,1007.45
2022-09-23T08:21:56.005Z,1007.52
2022-09-23T08:27:00.175Z,1007.44
2022-09-23T08:32:04.331Z,1007.39
2022-09-23T08:37:08.448Z,1007.45
2022-09-23T08:42:12.636Z,1007.36
2022-09-23T08:47:16.793Z,1007.44
2022-09-23T08:52:20.947Z,1007.43
2022-09-23T08:57:25.101Z,1007.36
2022-09-23T09:02:29.296Z,1007.19
2022-09-23T09:07:37.158Z,1007.12
2022-09-23T09:12:37.593Z,1007.13
2022-09-23T09:17:41.732Z,1007.10
2022-09-23T09:22:45.878Z,1007.06
2022-09-23T09:27:50.048Z,1007.08
2022-09-23T09:32:54.224Z,1007.12
2022-09-23T09:37:58.375Z,1007.05
2022-09-23T09:43:02.551Z,1006.97
2022-09-23T09:48:06.674Z,1006.91
2022-09-23T09:53:10.806Z,1006.90
2022-09-23T09:58:13.088Z,1006.90
2022-09-23T10:03:17.197Z,1006.80
2022-09-23T10:08:19.477Z,1006.73
2022-09-23T10:13:23.650Z,1006.72
2022-09-23T10:18:27.782Z,1006.74
2022-09-23T10:23:31.942Z,1006.75
2022-09-23T10:28:36.103Z,1006.73
2022-09-23T10:33:40.281Z,1006.67
2022-09-23T10:38:44.486Z,1006.68
2022-09-23T10:43:48.598Z,1006.73
2022-09-23T10:48:52.778Z,1006.60
2022-09-23T10:53:56.948Z,1006.54
2022-09-23T10:59:01.191Z,1006.48
2022-09-23T11:04:05.728Z,1006.44
2022-09-23T11:09:09.424Z,1006.48
2022-09-23T11:14:13.569Z,1006.40
2022-09-23T11:19:17.742Z,1006.38
2022-09-23T11:24:21.872Z,1006.39
2022-09-23T11:29:26.101Z,1006.30
2022-09-23T11:34:30.248Z,1006.39
2022-09-23T11:39:32.502Z,1006.38
2022-09-23T11:44:36.651Z,1006.33
2022-09-23T11:49:40.797Z,1006.28
2022-09-23T11:54:44.993Z,1006.22
2022-09-23T12:04:57.032Z,1006.26
2022-09-23T12:09:58.491Z,1006.14
2022-09-23T12:15:01.683Z,1006.18
2022-09-23T12:20:05.779Z,1006.27
2022-09-23T12:25:09.921Z,1006.10
2022-09-23T12:30:14.085Z,1006.12
2022-09-23T12:35:18.254Z,1006.04
2022-09-23T12:40:22.452Z,1005.93
2022-09-23T12:45:26.593Z,1005.96
2022-09-23T12:50:30.719Z,1005.90
2022-09-23T12:55:34.882Z,1005.85
2022-09-23T13:00:39.041Z,1005.86
2022-09-23T13:05:43.231Z,1005.76
2022-09-23T13:10:47.405Z,1005.77
2022-09-23T13:15:51.572Z,1005.80
2022-09-23T13:20:55.683Z,1005.78
2022-09-23T13:25:57.966Z,1005.73
2022-09-23T13:31:02.147Z,1005.72
2022-09-23T13:36:04.405Z,1005.64
2022-09-23T13:41:08.542Z,1005.62
2022-09-23T13:46:12.787Z,1005.64
2022-09-23T13:51:16.899Z,1005.58
2022-09-23T13:56:21.040Z,1005.65
2022-09-23T14:01:25.357Z,1005.68
2022-09-23T14:06:29.364Z,1005.53
2022-09-23T14:11:33.514Z,1005.44
2022-09-23T14:16:37.738Z,1005.47
2022-09-23T14:21:41.838Z,1005.42
2022-09-23T14:26:45.994Z,1005.36
2022-09-23T14:31:50.201Z,1005.35
2022-09-23T14:36:54.293Z,1005.30
2022-09-23T14:41:58.495Z,1005.31
2022-09-23T14:47:02.620Z,1005.27
2022-09-23T14:52:06.822Z,1005.21
2022-09-23T14:57:10.942Z,1005.18
2022-09-23T15:02:15.114Z,1005.16
2022-09-23T15:07:19.281Z,1005.12
2022-09-23T15:12:23.411Z,1005.08
2022-09-23T15:17:27.617Z,1005.03
2022-09-23T15:22:29.848Z,1005.01
2022-09-23T15:27:34.024Z,1004.99
2022-09-23T15:32:38.206Z,1005.02
2022-09-23T15:37:42.344Z,1004.98
2022-09-23T15:42:46.508Z,1004.98
2022-09-23T15:47:48.798Z,1004.93
2022-09-23T15:52:52.923Z,1004.94
2022-09-23T15:57:57.095Z,1004.85
2022-09-23T16:03:01.250Z,1004.76
2022-09-23T16:08:08.931Z,1004.77
2022-09-23T16:13:09.543Z,1004.71
2022-09-23T16:18:13.736Z,1004.71
2022-09-23T16:23:17.867Z,1004.64
2022-09-23T16:28:22.062Z,1004.61
2022-09-23T16:33:26.265Z,1004.56
2022-09-23T16:38:30.376Z,1004.55
2022-09-23T16:43:34.565Z,1004.61
2022-09-23T16:48:38.812Z,1004.61
2022-09-23T16:58:47.005Z,1004.59
2022-09-23T17:03:51.170Z,1004.53
2022-09-23T17:08:55.300Z,1004.56
2022-09-23T17:13:57.598Z,1004.55
2022-09-23T17:19:01.786Z,1004.61
2022-09-23T17:24:05.896Z,1004.59
2022-09-23T17:29:10.123Z,1004.54
2022-09-23T17:34:14.216Z,1004.57
2022-09-23T17:39:18.414Z,1004.62
2022-09-23T17:44:22.613Z,1004.55
2022-09-23T17:49:26.731Z,1004.45
2022-09-23T17:54:30.896Z,1004.39
2022-09-23T17:59:35.038Z,1004.46
2022-09-23T18:04:39.165Z,1004.38
2022-09-23T18:09:43.367Z,1004.44
2022-09-23T18:14:47.539Z,1004.50
2022-09-23T18:19:51.689Z,1004.48
2022-09-23T18:24:55.814Z,1004.45
2022-09-23T18:29:59.993Z,1004.49
2022-09-23T18:35:04.152Z,1004.41
2022-09-23T18:40:12.516Z,1004.44
2022-09-23T18:45:12.506Z,1004.46
2022-09-23T18:50:16.631Z,1004.48
2022-09-23T18:55:20.826Z,1004.48
2022-09-23T19:00:24.973Z,1004.54
2022-09-23T19:05:29.129Z,1004.65
2022-09-23T19:10:33.306Z,1004.57
2022-09-23T19:15:37.433Z,1004.62
2022-09-23T19:20:41.614Z,1004.61
2022-09-23T19:25:45.760Z,1004.69
2022-09-23T19:30:49.970Z,1004.59
2022-09-23T19:35:54.060Z,1004.61
2022-09-23T19:40:58.276Z,1004.62
2022-09-23T19:46:02.419Z,1004.70
2022-09-23T19:51:06.589Z,1004.67
2022-09-23T19:56:10.708Z,1004.62
2022-09-23T20:01:14.970Z,1004.65
2022-09-23T20:06:19.064Z,1004.61
2022-09-23T20:11:27.591Z,1004.72
2022-09-23T20:16:27.452Z,1004.55
2022-09-23T20:21:31.510Z,1004.46
2022-09-23T20:26:35.705Z,1004.48
2022-09-23T20:31:39.932Z,1004.42
2022-09-23T20:36:44.012Z,1004.49
2022-09-23T20:41:48.167Z,1004.45
2022-09-23T20:46:52.378Z,1004.53
2022-09-23T20:51:56.504Z,1004.42
2022-09-23T20:57:00.675Z,1004.44
2022-09-23T21:02:04.906Z,1004.44
2022-09-23T21:07:08.945Z,1004.36
2022-09-23T21:12:13.144Z,1004.34
2022-09-23T21:17:17.589Z,1004.40
2022-09-23T21:22:21.449Z,1004.43
2022-09-23T21:27:25.608Z,1004.43
2022-09-23T21:32:29.790Z,1004.42
2022-09-23T21:37:33.917Z,1004.41
2022-09-23T21:42:38.076Z,1004.36
2022-09-23T21:47:42.266Z,1004.37
2022-09-23T21:52:46.430Z,1004.36
2022-09-23T21:57:50.556Z,1004.40
2022-09-23T22:02:54.752Z,1004.36
2022-09-23T22:07:58.928Z,1004.41
2022-09-23T22:13:03.037Z,1004.41
2022-09-23T22:18:07.222Z,1004.30
2022-09-23T22:23:11.974Z,1004.28
2022-09-23T22:33:19.803Z,1004.29
2022-09-23T22:38:23.870Z,1004.26
2022-09-23T22:43:26.144Z,1004.20
2022-09-23T22:48:30.308Z,1004.26
2022-09-23T22:53:34.481Z,1004.23
2022-09-23T22:58:38.626Z,1004.17
2022-09-23T23:03:42.813Z,1004.10
2022-09-23T23:08:46.931Z,1004.13
2022-09-23T23:13:51.110Z,1004.09
2022-09-23T23:18:55.284Z,1004.07
2022-09-23T23:23:59.436Z,1004.01
2022-09-23T23:29:03.580Z,1004.06
2022-09-23T23:34:07.837Z,1004.04
2022-09-23T23:39:11.888Z,1003.98
2022-09-23T23:44:16.072Z,1003.99
2022-09-23T23:49:20.231Z,1003.97
2022-09-23T23:54:24.391Z,1003.91
2022-09-23T23:59:28.542Z,1003.92
